createdAt,value
2019-04-07T00:03:49.477Z,66.23
2019-04-07T00:07:54.305Z,66.58
2019-04-07T00:12:02.590Z,66.99
2019-04-07T00:16:14.560Z,67.23
2019-04-07T00:20:17.592Z,67.40
2019-04-07T00:24:21.155Z,66.79
2019-04-07T00:28:24.771Z,67.55
2019-04-07T00:32:30.167Z,67.75
2019-04-07T00:36:34.172Z,68.27
2019-04-07T00:40:38.232Z,68.40
2019-04-07T00:44:41.812Z,68.76
2019-04-07T00:48:45.520Z,68.37
2019-04-07T00:52:49.249Z,68.84
2019-04-07T00:56:53.052Z,69.05
2019-04-07T01:00:56.587Z,68.37
2019-04-07T01:05:00.243Z,67.31
2019-04-07T01:09:05.330Z,68.13
2019-04-07T01:13:09.268Z,67.86
2019-04-07T01:17:12.804Z,67.98
2019-04-07T01:21:17.047Z,68.88
2019-04-07T01:25:21.488Z,69.40
2019-04-07T01:29:25.527Z,68.71
2019-04-07T01:33:29.276Z,68.18
2019-04-07T01:37:32.878Z,67.41
2019-04-07T01:41:44.147Z,68.15
2019-04-07T01:46:02.185Z,68.19
2019-04-07T01:50:08.948Z,68.17
2019-04-07T01:54:14.143Z,66.75
2019-04-07T01:58:20.048Z,66.90
2019-04-07T02:02:25.590Z,66.25
2019-04-07T02:06:46.370Z,67.33
2019-04-07T02:10:55.029Z,68.23
2019-04-07T02:15:18.939Z,68.23
2019-04-07T02:19:24.192Z,67.93
2019-04-07T02:23:45.912Z,68.39
2019-04-07T02:27:54.557Z,68.10
2019-04-07T02:32:06.457Z,68.48
2019-04-07T02:36:21.979Z,68.44
2019-04-07T02:40:34.420Z,68.33
2019-04-07T02:44:58.055Z,68.06
2019-04-07T02:49:04.167Z,69.10
2019-04-07T02:53:21.778Z,68.32
2019-04-07T02:57:32.717Z,68.33
2019-04-07T03:01:55.209Z,68.96
2019-04-07T03:06:01.529Z,69.50
2019-04-07T03:10:18.610Z,69.58
2019-04-07T03:14:33.390Z,69.48
2019-04-07T03:18:42.478Z,68.94
2019-04-07T03:22:56.609Z,68.07
2019-04-07T03:27:11.487Z,68.07
2019-04-07T03:31:33.121Z,68.98
2019-04-07T03:35:43.727Z,69.58
2019-04-07T03:39:47.943Z,70.34
2019-04-07T03:43:53.186Z,69.82
2019-04-07T03:48:02.182Z,69.12
2019-04-07T03:52:07.469Z,69.06
2019-04-07T03:56:13.481Z,69.14
2019-04-07T04:00:50.852Z,69.34
2019-04-07T04:04:56.102Z,69.60
2019-04-07T04:09:14.028Z,69.45
2019-04-07T04:13:35.739Z,68.97
2019-04-07T04:17:39.520Z,69.33
2019-04-07T04:21:43.597Z,69.21
2019-04-07T04:25:48.920Z,68.94
2019-04-07T04:29:53.434Z,69.00
2019-04-07T04:33:58.004Z,68.91
2019-04-07T04:38:02.031Z,69.99
2019-04-07T04:42:06.018Z,69.83
2019-04-07T04:46:11.366Z,69.89
2019-04-07T04:50:15.150Z,70.26
2019-04-07T04:54:19.335Z,70.07
2019-04-07T04:58:23.105Z,70.05
2019-04-07T05:02:27.629Z,70.08
2019-04-07T05:06:31.299Z,68.68
2019-04-07T05:10:34.988Z,68.07
2019-04-07T05:14:38.833Z,68.73
2019-04-07T05:18:42.746Z,69.07
2019-04-07T05:22:58.639Z,67.45
2019-04-07T05:27:03.110Z,66.14
2019-04-07T05:31:07.352Z,66.84
2019-04-07T05:35:11.126Z,66.94
2019-04-07T05:39:15.293Z,66.03
2019-04-07T05:43:19.299Z,65.60
2019-04-07T05:47:23.001Z,64.86
2019-04-07T05:51:29.862Z,65.54
2019-04-07T05:55:32.111Z,64.42
2019-04-07T05:59:35.687Z,63.61
2019-04-07T06:03:42.839Z,63.16
2019-04-07T06:07:45.819Z,63.38
2019-04-07T06:11:49.838Z,63.87
2019-04-07T06:15:54.049Z,63.60
2019-04-07T06:19:58.970Z,63.51
2019-04-07T06:24:02.698Z,62.01
2019-04-07T06:28:07.070Z,59.37
2019-04-07T06:32:11.222Z,59.96
2019-04-07T06:36:17.652Z,58.52
2019-04-07T06:40:21.956Z,56.79
2019-04-07T06:44:25.891Z,53.13
2019-04-07T06:48:30.608Z,48.14
2019-04-07T06:52:40.614Z,43.53
2019-04-07T06:56:43.602Z,44.91
2019-04-07T07:01:06.969Z,46.62
2019-04-07T07:05:13.608Z,45.51
2019-04-07T07:09:38.965Z,43.15
2019-04-07T07:14:02.117Z,42.11
2019-04-07T07:18:13.199Z,39.21
2019-04-07T07:22:18.682Z,36.59
2019-04-07T07:26:22.306Z,37.25
2019-04-07T07:30:26.066Z,35.57
2019-04-07T07:34:30.425Z,35.99
2019-04-07T07:38:34.582Z,33.46
2019-04-07T07:42:38.296Z,35.88
2019-04-07T07:46:42.178Z,39.47
2019-04-07T07:50:45.869Z,37.03
2019-04-07T07:54:49.619Z,35.47
2019-04-07T07:58:53.922Z,33.97
2019-04-07T08:02:58.242Z,32.00
2019-04-07T08:07:02.625Z,31.60
2019-04-07T08:11:06.762Z,27.63
2019-04-07T08:15:10.691Z,28.04
2019-04-07T08:19:14.409Z,27.85
2019-04-07T08:23:18.715Z,28.45
2019-04-07T08:27:22.644Z,28.29
2019-04-07T08:31:26.454Z,28.43
2019-04-07T08:35:30.843Z,25.76
2019-04-07T08:39:36.267Z,26.90
2019-04-07T08:43:40.910Z,24.54
2019-04-07T08:47:47.373Z,25.00
2019-04-07T08:51:50.596Z,23.38
2019-04-07T08:55:55.200Z,24.98
2019-04-07T08:59:58.979Z,26.37
2019-04-07T09:04:02.694Z,27.37
2019-04-07T09:08:07.362Z,25.54
2019-04-07T09:12:11.419Z,26.31
2019-04-07T09:16:20.008Z,27.26
2019-04-07T09:20:34.664Z,27.58
2019-04-07T09:24:42.927Z,27.96
2019-04-07T09:28:53.394Z,28.33
2019-04-07T09:32:58.825Z,29.63
2019-04-07T09:37:11.839Z,30.75
2019-04-07T09:41:23.514Z,29.37
2019-04-07T09:45:33.394Z,30.68
2019-04-07T09:49:48.120Z,30.06
2019-04-07T09:53:57.548Z,28.62
2019-04-07T09:58:10.926Z,27.37
2019-04-07T10:02:18.654Z,28.31
2019-04-07T10:06:39.047Z,27.11
2019-04-07T10:10:49.456Z,27.58
2019-04-07T10:15:03.696Z,28.92
2019-04-07T10:19:15.348Z,27.88
2019-04-07T10:23:37.514Z,27.94
2019-04-07T10:27:43.041Z,26.61
2019-04-07T10:31:49.328Z,26.90
2019-04-07T10:36:11.272Z,26.90
2019-04-07T10:40:21.814Z,26.61
2019-04-07T10:44:25.979Z,25.01
2019-04-07T10:48:40.152Z,24.99
2019-04-07T10:53:01.911Z,24.56
2019-04-07T10:57:24.694Z,23.76
2019-04-07T11:01:29.947Z,24.34
2019-04-07T11:05:35.529Z,23.08
2019-04-07T11:09:57.868Z,24.38
2019-04-07T11:14:03.320Z,27.32
2019-04-07T11:18:19.175Z,28.07
2019-04-07T11:22:25.390Z,29.52
2019-04-07T11:26:31.009Z,29.46
2019-04-07T11:30:52.094Z,29.15
2019-04-07T11:35:07.112Z,27.71
2019-04-07T11:39:33.514Z,27.40
2019-04-07T11:43:54.737Z,28.08
2019-04-07T11:48:02.452Z,29.25
2019-04-07T11:52:11.243Z,28.99
2019-04-07T11:56:16.946Z,29.18
2019-04-07T12:00:25.271Z,29.98
2019-04-07T12:04:36.459Z,28.88
2019-04-07T12:08:51.126Z,26.76
2019-04-07T12:12:57.013Z,29.70
2019-04-07T12:17:08.712Z,27.55
2019-04-07T12:21:20.741Z,28.00
2019-04-07T12:25:34.883Z,28.67
2019-04-07T12:29:42.928Z,27.17
2019-04-07T12:34:04.958Z,27.92
2019-04-07T12:38:16.552Z,26.49
2019-04-07T12:42:24.459Z,28.79
2019-04-07T12:46:30.052Z,27.05
2019-04-07T12:50:35.624Z,26.36
2019-04-07T12:54:47.083Z,28.46
2019-04-07T12:59:01.467Z,29.88
2019-04-07T13:03:23.181Z,26.49
2019-04-07T13:07:38.629Z,26.61
2019-04-07T13:11:47.975Z,27.78
2019-04-07T13:15:52.127Z,28.92
2019-04-07T13:20:00.884Z,27.24
2019-04-07T13:24:12.679Z,27.51
2019-04-07T13:28:16.476Z,27.93
2019-04-07T13:32:43.101Z,28.25
2019-04-07T13:36:45.202Z,26.99
2019-04-07T13:40:55.090Z,29.09
2019-04-07T13:45:03.492Z,27.46
2019-04-07T13:49:14.968Z,26.29
2019-04-07T13:53:36.783Z,26.21
2019-04-07T13:57:54.912Z,28.01
2019-04-07T14:02:00.893Z,27.53
2019-04-07T14:06:06.919Z,27.28
2019-04-07T14:10:15.629Z,31.52
2019-04-07T14:14:23.453Z,28.51
2019-04-07T14:18:32.083Z,26.71
2019-04-07T14:22:39.955Z,26.38
2019-04-07T14:26:49.017Z,26.19
2019-04-07T14:31:10.830Z,25.50
2019-04-07T14:35:16.195Z,26.42
2019-04-07T14:39:28.179Z,28.33
2019-04-07T14:43:39.600Z,27.84
2019-04-07T14:47:46.298Z,26.93
2019-04-07T14:52:01.352Z,25.82
2019-04-07T14:56:07.954Z,26.82
2019-04-07T15:00:20.426Z,27.66
2019-04-07T15:04:26.680Z,27.37
2019-04-07T15:08:32.893Z,27.02
2019-04-07T15:12:41.404Z,29.26
2019-04-07T15:16:45.107Z,26.95
2019-04-07T15:20:48.798Z,27.24
2019-04-07T15:24:52.437Z,29.25
2019-04-07T15:28:58.194Z,28.58
2019-04-07T15:33:02.762Z,27.40
2019-04-07T15:37:07.845Z,27.57
2019-04-07T15:41:13.947Z,27.32
2019-04-07T15:45:16.859Z,25.80
2019-04-07T15:49:20.534Z,28.19
2019-04-07T15:53:24.532Z,27.28
2019-04-07T15:57:29.036Z,28.30
2019-04-07T16:01:33.733Z,30.77
2019-04-07T16:05:42.248Z,28.17
2019-04-07T16:09:50.881Z,27.88
2019-04-07T16:13:48.197Z,27.15
2019-04-07T16:17:52.298Z,27.99
2019-04-07T16:21:56.040Z,28.20
2019-04-07T16:26:01.959Z,27.95
2019-04-07T16:30:08.594Z,29.30
2019-04-07T16:34:13.158Z,31.76
2019-04-07T16:38:17.467Z,32.77
2019-04-07T16:42:21.174Z,33.08
2019-04-07T16:46:25.073Z,31.89
2019-04-07T16:50:29.507Z,31.47
2019-04-07T16:54:33.949Z,32.90
2019-04-07T16:58:39.939Z,34.06
2019-04-07T17:02:43.889Z,33.31
2019-04-07T17:06:58.506Z,32.19
2019-04-07T17:10:53.856Z,32.08
2019-04-07T17:14:57.844Z,32.70
2019-04-07T17:19:02.095Z,32.34
2019-04-07T17:23:06.960Z,33.07
2019-04-07T17:27:11.739Z,33.58
2019-04-07T17:31:15.642Z,34.36
2019-04-07T17:35:21.242Z,33.12
2019-04-07T17:39:26.570Z,34.19
2019-04-07T17:43:45.796Z,33.80
2019-04-07T17:47:41.636Z,33.84
2019-04-07T17:51:53.101Z,33.94
2019-04-07T17:56:19.963Z,34.55
2019-04-07T18:00:43.334Z,35.88
2019-04-07T18:04:53.603Z,36.62
2019-04-07T18:09:10.090Z,37.41
2019-04-07T18:13:15.735Z,38.12
2019-04-07T18:17:23.738Z,38.50
2019-04-07T18:21:51.697Z,39.05
2019-04-07T18:26:14.399Z,38.37
2019-04-07T18:30:20.506Z,41.60
2019-04-07T18:34:42.990Z,41.42
2019-04-07T18:39:06.672Z,40.31
2019-04-07T18:43:21.508Z,41.87
2019-04-07T18:47:27.402Z,42.27
2019-04-07T18:51:33.586Z,43.39
2019-04-07T18:55:50.975Z,43.66
2019-04-07T19:00:05.942Z,44.52
2019-04-07T19:04:17.659Z,44.99
2019-04-07T19:08:40.079Z,45.80
2019-04-07T19:12:47.717Z,46.24
2019-04-07T19:16:55.341Z,46.52
2019-04-07T19:21:01.105Z,47.45
2019-04-07T19:25:21.542Z,48.77
2019-04-07T19:29:39.120Z,49.32
2019-04-07T19:33:45.121Z,52.15
2019-04-07T19:37:53.940Z,52.83
2019-04-07T19:42:16.402Z,53.90
2019-04-07T19:46:40.689Z,55.30
2019-04-07T19:51:01.918Z,56.83
2019-04-07T19:55:14.278Z,59.60
2019-04-07T19:59:41.581Z,60.27
2019-04-07T20:03:44.847Z,60.92
2019-04-07T20:08:01.414Z,61.03
2019-04-07T20:12:14.252Z,59.72
2019-04-07T20:16:26.253Z,60.64
2019-04-07T20:20:34.076Z,61.61
2019-04-07T20:24:55.409Z,61.10
2019-04-07T20:29:10.697Z,62.15
2019-04-07T20:33:18.815Z,63.41
2019-04-07T20:37:27.272Z,63.33
2019-04-07T20:41:43.065Z,63.38
2019-04-07T20:45:53.805Z,63.58
2019-04-07T20:49:59.992Z,63.27
2019-04-07T20:54:11.093Z,62.72
2019-04-07T20:58:23.800Z,62.26
2019-04-07T21:02:29.344Z,63.91
2019-04-07T21:06:38.618Z,64.66
2019-04-07T21:10:49.725Z,64.91
2019-04-07T21:15:21.011Z,64.53
2019-04-07T21:19:20.853Z,63.77
2019-04-07T21:23:41.289Z,64.15
2019-04-07T21:27:50.508Z,64.83
2019-04-07T21:32:09.631Z,62.93
2019-04-07T21:36:30.241Z,64.31
2019-04-07T21:40:51.574Z,65.69
2019-04-07T21:45:10.453Z,65.58
2019-04-07T21:49:27.935Z,65.27
2019-04-07T21:53:33.562Z,65.44
2019-04-07T21:57:38.899Z,64.88
2019-04-07T22:02:00.155Z,65.22
2019-04-07T22:06:14.562Z,65.34
2019-04-07T22:10:20.313Z,65.15
2019-04-07T22:14:23.503Z,66.10
2019-04-07T22:18:27.179Z,65.89
2019-04-07T22:22:31.117Z,66.70
2019-04-07T22:26:34.992Z,66.48
2019-04-07T22:30:42.345Z,66.14
2019-04-07T22:34:44.601Z,66.30
2019-04-07T22:38:48.564Z,65.61
2019-04-07T22:42:52.364Z,66.25
2019-04-07T22:46:56.513Z,65.71
2019-04-07T22:51:02.545Z,66.54
2019-04-07T22:55:08.408Z,66.89
2019-04-07T22:59:12.782Z,66.40
2019-04-07T23:03:17.596Z,66.80
2019-04-07T23:07:21.323Z,65.88
2019-04-07T23:11:25.785Z,64.15
2019-04-07T23:15:38.534Z,66.66
2019-04-07T23:19:34.910Z,66.56
2019-04-07T23:23:38.492Z,67.54
2019-04-07T23:27:42.128Z,67.92
2019-04-07T23:31:46.010Z,66.45
2019-04-07T23:35:49.665Z,66.28
2019-04-07T23:39:53.774Z,66.82
2019-04-07T23:43:57.504Z,66.94
2019-04-07T23:48:01.993Z,67.28
2019-04-07T23:52:05.652Z,68.27
2019-04-07T23:56:10.039Z,68.11
